sensor_id;sensor_type;location;lat;lon;timestamp;pressure;altitude;pressure_sealevel;temperature;humidity
22753;BME280;11543;43.144;24.684;2023-03-04T00:00:38;98921.13;;;9.41;77.82
22753;BME280;11543;43.144;24.684;2023-03-04T00:03:09;98922.00;;;9.32;77.50
22753;BME280;11543;43.144;24.684;2023-03-04T00:05:36;98921.47;;;9.19;77.36
22753;BME280;11543;43.144;24.684;2023-03-04T00:08:02;98924.84;;;9.21;77.30
22753;BME280;11543;43.144;24.684;2023-03-04T00:10:28;98945.69;;;9.27;77.81
22753;BME280;11543;43.144;24.684;2023-03-04T00:12:54;98944.00;;;9.26;78.31
22753;BME280;11543;43.144;24.684;2023-03-04T00:15:19;98935.56;;;9.21;78.51
22753;BME280;11543;43.144;24.684;2023-03-04T00:17:44;98942.03;;;9.28;79.40
22753;BME280;11543;43.144;24.684;2023-03-04T00:20:11;98946.81;;;9.34;79.34
22753;BME280;11543;43.144;24.684;2023-03-04T00:22:37;98939.47;;;9.36;79.28
22753;BME280;11543;43.144;24.684;2023-03-04T00:25:03;98942.56;;;9.41;79.17
22753;BME280;11543;43.144;24.684;2023-03-04T00:27:28;98935.50;;;9.40;78.93
22753;BME280;11543;43.144;24.684;2023-03-04T00:29:54;98949.00;;;9.48;79.00
22753;BME280;11543;43.144;24.684;2023-03-04T00:32:20;98946.03;;;9.51;79.06
22753;BME280;11543;43.144;24.684;2023-03-04T00:34:46;98941.38;;;9.53;79.10
22753;BME280;11543;43.144;24.684;2023-03-04T00:37:11;98937.75;;;9.54;78.99
22753;BME280;11543;43.144;24.684;2023-03-04T00:39:37;98930.41;;;9.47;78.80
22753;BME280;11543;43.144;24.684;2023-03-04T00:42:02;98920.00;;;9.44;79.02
22753;BME280;11543;43.144;24.684;2023-03-04T00:44:28;98904.06;;;9.42;78.62
22753;BME280;11543;43.144;24.684;2023-03-04T00:46:53;98910.81;;;9.46;78.84
22753;BME280;11543;43.144;24.684;2023-03-04T00:49:19;98897.91;;;9.32;78.76
22753;BME280;11543;43.144;24.684;2023-03-04T00:51:44;98913.50;;;9.46;78.78
22753;BME280;11543;43.144;24.684;2023-03-04T00:54:10;98928.97;;;9.52;78.57
22753;BME280;11543;43.144;24.684;2023-03-04T00:56:35;98919.69;;;9.47;78.52
22753;BME280;11543;43.144;24.684;2023-03-04T00:59:01;98925.06;;;9.56;78.30
22753;BME280;11543;43.144;24.684;2023-03-04T01:01:26;98913.22;;;9.49;78.47
22753;BME280;11543;43.144;24.684;2023-03-04T01:03:52;98908.16;;;9.46;78.49
22753;BME280;11543;43.144;24.684;2023-03-04T01:06:17;98905.31;;;9.48;78.56
22753;BME280;11543;43.144;24.684;2023-03-04T01:08:43;98906.31;;;9.47;78.58
22753;BME280;11543;43.144;24.684;2023-03-04T01:11:08;98900.50;;;9.51;78.25
22753;BME280;11543;43.144;24.684;2023-03-04T01:13:34;98919.69;;;9.56;78.35
22753;BME280;11543;43.144;24.684;2023-03-04T01:16:00;98912.91;;;9.52;78.28
22753;BME280;11543;43.144;24.684;2023-03-04T01:18:27;98907.84;;;9.49;78.44
22753;BME280;11543;43.144;24.684;2023-03-04T01:20:53;98926.75;;;9.57;78.37
22753;BME280;11543;43.144;24.684;2023-03-04T01:23:18;98932.78;;;9.60;78.74
22753;BME280;11543;43.144;24.684;2023-03-04T01:25:44;98924.22;;;9.56;78.32
22753;BME280;11543;43.144;24.684;2023-03-04T01:28:10;98927.59;;;9.48;78.37
22753;BME280;11543;43.144;24.684;2023-03-04T01:30:35;98914.19;;;9.48;78.39
22753;BME280;11543;43.144;24.684;2023-03-04T01:33:01;98923.38;;;9.46;78.61
22753;BME280;11543;43.144;24.684;2023-03-04T01:35:26;98932.94;;;9.58;78.61
22753;BME280;11543;43.144;24.684;2023-03-04T01:37:52;98909.13;;;9.45;78.61
22753;BME280;11543;43.144;24.684;2023-03-04T01:40:18;98909.84;;;9.47;78.45
22753;BME280;11543;43.144;24.684;2023-03-04T01:42:44;98915.19;;;9.47;78.52
22753;BME280;11543;43.144;24.684;2023-03-04T01:45:13;98922.78;;;9.62;78.67
22753;BME280;11543;43.144;24.684;2023-03-04T01:47:40;98916.56;;;9.61;78.83
22753;BME280;11543;43.144;24.684;2023-03-04T01:52:51;98908.69;;;9.60;78.40
22753;BME280;11543;43.144;24.684;2023-03-04T01:55:19;98917.41;;;9.62;78.36
22753;BME280;11543;43.144;24.684;2023-03-04T01:57:46;98911.81;;;9.55;78.36
22753;BME280;11543;43.144;24.684;2023-03-04T02:00:29;98920.66;;;9.65;78.15
22753;BME280;11543;43.144;24.684;2023-03-04T02:03:01;98907.00;;;9.58;78.22
22753;BME280;11543;43.144;24.684;2023-03-04T02:05:29;98898.53;;;9.53;78.24
22753;BME280;11543;43.144;24.684;2023-03-04T02:07:56;98915.72;;;9.61;78.06
22753;BME280;11543;43.144;24.684;2023-03-04T02:10:22;98901.94;;;9.55;78.44
22753;BME280;11543;43.144;24.684;2023-03-04T02:12:48;98878.97;;;9.43;78.23
22753;BME280;11543;43.144;24.684;2023-03-04T02:15:15;98905.03;;;9.61;78.12
22753;BME280;11543;43.144;24.684;2023-03-04T02:17:40;98899.53;;;9.52;77.99
22753;BME280;11543;43.144;24.684;2023-03-04T02:20:44;98894.75;;;9.56;77.96
22753;BME280;11543;43.144;24.684;2023-03-04T02:23:14;98879.69;;;9.45;77.90
22753;BME280;11543;43.144;24.684;2023-03-04T02:25:51;98886.44;;;9.49;77.63
22753;BME280;11543;43.144;24.684;2023-03-04T02:28:19;98914.34;;;9.56;77.79
22753;BME280;11543;43.144;24.684;2023-03-04T02:30:45;98902.94;;;9.54;77.63
22753;BME280;11543;43.144;24.684;2023-03-04T02:33:18;98902.19;;;9.52;77.56
22753;BME280;11543;43.144;24.684;2023-03-04T02:35:44;98915.72;;;9.61;77.47
22753;BME280;11543;43.144;24.684;2023-03-04T02:38:11;98901.50;;;9.50;77.79
22753;BME280;11543;43.144;24.684;2023-03-04T02:40:38;98890.38;;;9.45;77.86
22753;BME280;11543;43.144;24.684;2023-03-04T02:43:04;98895.16;;;9.51;77.74
22753;BME280;11543;43.144;24.684;2023-03-04T02:45:48;98903.88;;;9.53;77.64
22753;BME280;11543;43.144;24.684;2023-03-04T02:48:21;98877.28;;;9.42;77.68
22753;BME280;11543;43.144;24.684;2023-03-04T02:50:52;98876.59;;;9.40;77.64
22753;BME280;11543;43.144;24.684;2023-03-04T02:53:19;98883.63;;;9.41;77.48
22753;BME280;11543;43.144;24.684;2023-03-04T02:55:49;98844.84;;;9.18;77.71
22753;BME280;11543;43.144;24.684;2023-03-04T02:58:15;98846.94;;;9.24;77.39
22753;BME280;11543;43.144;24.684;2023-03-04T03:00:41;98900.09;;;9.56;77.71
22753;BME280;11543;43.144;24.684;2023-03-04T03:03:06;98887.28;;;9.50;77.39
22753;BME280;11543;43.144;24.684;2023-03-04T03:05:35;98852.28;;;9.24;77.40
22753;BME280;11543;43.144;24.684;2023-03-04T03:08:01;98886.72;;;9.46;77.32
22753;BME280;11543;43.144;24.684;2023-03-04T03:10:27;98847.91;;;9.23;77.58
22753;BME280;11543;43.144;24.684;2023-03-04T03:12:52;98852.97;;;9.26;77.76
22753;BME280;11543;43.144;24.684;2023-03-04T03:15:18;98880.00;;;9.33;77.78
22753;BME280;11543;43.144;24.684;2023-03-04T03:17:43;98881.28;;;9.29;77.99
22753;BME280;11543;43.144;24.684;2023-03-04T03:20:11;98887.59;;;9.37;77.63
22753;BME280;11543;43.144;24.684;2023-03-04T03:22:37;98872.13;;;9.31;77.71
22753;BME280;11543;43.144;24.684;2023-03-04T03:25:03;98877.59;;;9.39;77.65
22753;BME280;11543;43.144;24.684;2023-03-04T03:27:29;98877.78;;;9.28;77.80
22753;BME280;11543;43.144;24.684;2023-03-04T03:29:55;98855.53;;;9.18;77.85
22753;BME280;11543;43.144;24.684;2023-03-04T03:32:20;98872.13;;;9.31;77.85
22753;BME280;11543;43.144;24.684;2023-03-04T03:34:46;98858.63;;;9.23;77.70
22753;BME280;11543;43.144;24.684;2023-03-04T03:37:12;98880.28;;;9.39;77.39
22753;BME280;11543;43.144;24.684;2023-03-04T03:39:37;98853.88;;;9.17;77.59
22753;BME280;11543;43.144;24.684;2023-03-04T03:42:03;98871.84;;;9.34;77.63
22753;BME280;11543;43.144;24.684;2023-03-04T03:44:28;98875.50;;;9.33;77.63
22753;BME280;11543;43.144;24.684;2023-03-04T03:46:54;98866.47;;;9.34;77.64
22753;BME280;11543;43.144;24.684;2023-03-04T03:49:20;98854.97;;;9.24;77.62
22753;BME280;11543;43.144;24.684;2023-03-04T03:51:45;98868.75;;;9.29;77.64
22753;BME280;11543;43.144;24.684;2023-03-04T03:54:11;98886.44;;;9.49;77.77
22753;BME280;11543;43.144;24.684;2023-03-04T03:56:36;98844.81;;;9.27;77.69
22753;BME280;11543;43.144;24.684;2023-03-04T03:59:02;98882.22;;;9.47;77.88
22753;BME280;11543;43.144;24.684;2023-03-04T04:01:27;98875.50;;;9.33;78.03
22753;BME280;11543;43.144;24.684;2023-03-04T04:03:53;98856.66;;;9.25;78.28
22753;BME280;11543;43.144;24.684;2023-03-04T04:06:19;98866.47;;;9.34;78.09
22753;BME280;11543;43.144;24.684;2023-03-04T04:08:44;98887.28;;;9.50;78.13
22753;BME280;11543;43.144;24.684;2023-03-04T04:11:10;98900.66;;;9.60;77.73
22753;BME280;11543;43.144;24.684;2023-03-04T04:13:36;98892.91;;;9.56;78.04
22753;BME280;11543;43.144;24.684;2023-03-04T04:16:02;98894.59;;;9.57;77.90
22753;BME280;11543;43.144;24.684;2023-03-04T04:18:27;98847.03;;;9.32;77.74
22753;BME280;11543;43.144;24.684;2023-03-04T04:20:53;98863.63;;;9.45;77.80
22753;BME280;11543;43.144;24.684;2023-03-04T04:23:19;98892.31;;;9.63;77.80
22753;BME280;11543;43.144;24.684;2023-03-04T04:25:45;98882.59;;;9.62;77.76
22753;BME280;11543;43.144;24.684;2023-03-04T04:28:10;98869.50;;;9.58;77.74
22753;BME280;11543;43.144;24.684;2023-03-04T04:30:36;98852.31;;;9.51;77.79
22753;BME280;11543;43.144;24.684;2023-03-04T04:33:02;98834.59;;;9.41;77.73
22753;BME280;11543;43.144;24.684;2023-03-04T04:35:30;98859.09;;;9.55;77.23
22753;BME280;11543;43.144;24.684;2023-03-04T04:37:56;98885.38;;;9.70;77.47
22753;BME280;11543;43.144;24.684;2023-03-04T04:40:21;98837.44;;;9.39;77.40
22753;BME280;11543;43.144;24.684;2023-03-04T04:42:47;98853.59;;;9.47;77.38
22753;BME280;11543;43.144;24.684;2023-03-04T04:45:13;98857.13;;;9.48;77.24
22753;BME280;11543;43.144;24.684;2023-03-04T04:47:38;98865.31;;;9.46;77.22
22753;BME280;11543;43.144;24.684;2023-03-04T04:50:04;98863.63;;;9.45;77.33
22753;BME280;11543;43.144;24.684;2023-03-04T04:52:30;98864.00;;;9.50;77.35
22753;BME280;11543;43.144;24.684;2023-03-04T04:54:55;98889.53;;;9.54;77.18
22753;BME280;11543;43.144;24.684;2023-03-04T04:57:21;98867.28;;;9.44;77.59
22753;BME280;11543;43.144;24.684;2023-03-04T04:59:47;98837.22;;;9.23;77.25
22753;BME280;11543;43.144;24.684;2023-03-04T05:02:26;98836.22;;;9.24;77.55
22753;BME280;11543;43.144;24.684;2023-03-04T05:05:05;98886.72;;;9.56;77.47
22753;BME280;11543;43.144;24.684;2023-03-04T05:07:31;98862.81;;;9.35;77.50
22753;BME280;11543;43.144;24.684;2023-03-04T05:09:57;98846.94;;;9.24;77.51
22753;BME280;11543;43.144;24.684;2023-03-04T05:12:22;98854.13;;;9.23;77.60
22753;BME280;11543;43.144;24.684;2023-03-04T05:14:48;98867.91;;;9.29;77.52
22753;BME280;11543;43.144;24.684;2023-03-04T05:17:13;98882.53;;;9.34;77.81
22753;BME280;11543;43.144;24.684;2023-03-04T05:19:39;98896.16;;;9.50;78.06
22753;BME280;11543;43.144;24.684;2023-03-04T05:22:04;98861.72;;;9.28;78.00
22753;BME280;11543;43.144;24.684;2023-03-04T05:24:30;98876.59;;;9.40;77.72
22753;BME280;11543;43.144;24.684;2023-03-04T05:27:31;98868.47;;;9.32;77.82
22753;BME280;11543;43.144;24.684;2023-03-04T05:30:36;98869.59;;;9.30;77.74
22753;BME280;11543;43.144;24.684;2023-03-04T05:40:05;98877.78;;;9.28;77.82
22753;BME280;11543;43.144;24.684;2023-03-04T05:42:41;98867.94;;;9.19;77.83
22753;BME280;11543;43.144;24.684;2023-03-04T05:45:14;98894.66;;;9.38;77.77
22753;BME280;11543;43.144;24.684;2023-03-04T05:47:40;98898.31;;;9.37;77.77
22753;BME280;11543;43.144;24.684;2023-03-04T05:50:06;98881.03;;;9.22;77.89
22753;BME280;11543;43.144;24.684;2023-03-04T05:52:31;98895.22;;;9.32;78.45
22753;BME280;11543;43.144;24.684;2023-03-04T05:54:57;98885.00;;;9.18;78.85
22753;BME280;11543;43.144;24.684;2023-03-04T05:57:22;98874.97;;;9.20;78.83
22753;BME280;11543;43.144;24.684;2023-03-04T05:59:48;98911.53;;;9.48;78.70
22753;BME280;11543;43.144;24.684;2023-03-04T06:02:13;98873.97;;;9.31;78.79
22753;BME280;11543;43.144;24.684;2023-03-04T06:04:39;98894.06;;;9.44;78.70
22753;BME280;11543;43.144;24.684;2023-03-04T06:07:07;98933.47;;;9.71;78.65
22753;BME280;11543;43.144;24.684;2023-03-04T06:09:33;98905.31;;;9.48;78.54
22753;BME280;11543;43.144;24.684;2023-03-04T06:18:57;98913.91;;;9.51;79.15
22753;BME280;11543;43.144;24.684;2023-03-04T06:21:23;98913.50;;;9.56;79.45
22753;BME280;11543;43.144;24.684;2023-03-04T06:23:49;98904.88;;;9.52;79.19
22753;BME280;11543;43.144;24.684;2023-03-04T06:29:09;98892.78;;;9.48;78.98
22753;BME280;11543;43.144;24.684;2023-03-04T06:31:37;98900.50;;;9.51;79.84
22753;BME280;11543;43.144;24.684;2023-03-04T06:34:15;98895.75;;;9.45;79.85
22753;BME280;11543;43.144;24.684;2023-03-04T06:36:40;98875.16;;;9.46;80.08
22753;BME280;11543;43.144;24.684;2023-03-04T06:39:06;98908.34;;;9.72;79.85
22753;BME280;11543;43.144;24.684;2023-03-04T06:41:35;98874.03;;;9.58;79.57
22753;BME280;11543;43.144;24.684;2023-03-04T06:44:08;98879.63;;;9.65;79.35
22753;BME280;11543;43.144;24.684;2023-03-04T06:46:46;98905.56;;;9.92;79.63
22753;BME280;11543;43.144;24.684;2023-03-04T06:49:20;98878.44;;;9.77;79.18
22753;BME280;11543;43.144;24.684;2023-03-04T06:51:46;98891.22;;;9.83;79.07
22753;BME280;11543;43.144;24.684;2023-03-04T06:54:11;98892.03;;;9.93;78.89
22753;BME280;11543;43.144;24.684;2023-03-04T06:57:03;98888.06;;;9.97;78.58
22753;BME280;11543;43.144;24.684;2023-03-04T06:59:29;98896.56;;;10.10;78.36
22753;BME280;11543;43.144;24.684;2023-03-04T07:01:55;98883.47;;;10.07;78.00
22753;BME280;11543;43.144;24.684;2023-03-04T07:04:28;98931.16;;;10.41;78.03
22753;BME280;11543;43.144;24.684;2023-03-04T07:06:53;98926.47;;;10.43;77.92
22753;BME280;11543;43.144;24.684;2023-03-04T07:09:19;98929.94;;;10.53;77.62
22753;BME280;11543;43.144;24.684;2023-03-04T07:11:44;98894.19;;;10.35;77.48
22753;BME280;11543;43.144;24.684;2023-03-04T07:14:10;98932.69;;;10.61;77.54
22753;BME280;11543;43.144;24.684;2023-03-04T07:16:36;98921.94;;;10.61;77.59
22753;BME280;11543;43.144;24.684;2023-03-04T07:19:02;98912.59;;;10.65;77.63
22753;BME280;11543;43.144;24.684;2023-03-04T07:21:27;98900.50;;;10.61;77.40
22753;BME280;11543;43.144;24.684;2023-03-04T07:23:53;98910.38;;;10.78;77.64
22753;BME280;11543;43.144;24.684;2023-03-04T07:26:19;98906.31;;;10.74;77.43
22753;BME280;11543;43.144;24.684;2023-03-04T07:28:45;98888.84;;;10.70;77.32
22753;BME280;11543;43.144;24.684;2023-03-04T07:31:28;98889.91;;;10.77;77.49
22753;BME280;11543;43.144;24.684;2023-03-04T07:34:05;98887.28;;;10.85;77.71
22753;BME280;11543;43.144;24.684;2023-03-04T07:36:34;98927.09;;;11.16;78.03
22753;BME280;11543;43.144;24.684;2023-03-04T07:39:02;98909.31;;;11.15;78.08
22753;BME280;11543;43.144;24.684;2023-03-04T07:41:28;98889.09;;;11.03;77.92
22753;BME280;11543;43.144;24.684;2023-03-04T07:44:02;98899.09;;;11.18;77.79
22753;BME280;11543;43.144;24.684;2023-03-04T07:46:29;98907.69;;;11.22;77.75
22753;BME280;11543;43.144;24.684;2023-03-04T07:48:55;98899.31;;;11.25;77.64
22753;BME280;11543;43.144;24.684;2023-03-04T07:51:24;98932.72;;;11.48;77.24
22753;BME280;11543;43.144;24.684;2023-03-04T07:53:52;98934.00;;;11.36;76.48
22753;BME280;11543;43.144;24.684;2023-03-04T07:56:24;98923.88;;;11.30;76.32
22753;BME280;11543;43.144;24.684;2023-03-04T07:58:51;98888.34;;;11.18;75.91
22753;BME280;11543;43.144;24.684;2023-03-04T08:01:21;98929.31;;;11.38;74.89
22753;BME280;11543;43.144;24.684;2023-03-04T08:03:47;98931.34;;;11.44;72.32
22753;BME280;11543;43.144;24.684;2023-03-04T08:06:15;98928.72;;;11.53;71.52
22753;BME280;11543;43.144;24.684;2023-03-04T08:08:41;98930.19;;;11.47;71.51
22753;BME280;11543;43.144;24.684;2023-03-04T08:11:19;98909.28;;;11.33;72.59
22753;BME280;11543;43.144;24.684;2023-03-04T08:13:44;98923.19;;;11.28;71.77
22753;BME280;11543;43.144;24.684;2023-03-04T08:16:16;98906.59;;;11.33;72.11
22753;BME280;11543;43.144;24.684;2023-03-04T08:18:43;98919.34;;;11.57;70.89
22753;BME280;11543;43.144;24.684;2023-03-04T08:21:10;98921.75;;;11.68;69.64
22753;BME280;11543;43.144;24.684;2023-03-04T08:23:36;98913.00;;;11.66;69.12
22753;BME280;11543;43.144;24.684;2023-03-04T08:26:07;98915.69;;;11.66;69.35
22753;BME280;11543;43.144;24.684;2023-03-04T08:28:33;98892.09;;;11.52;68.51
22753;BME280;11543;43.144;24.684;2023-03-04T08:30:59;98901.72;;;11.62;69.48
22753;BME280;11543;43.144;24.684;2023-03-04T08:33:27;98914.38;;;11.70;70.50
22753;BME280;11543;43.144;24.684;2023-03-04T08:35:53;98872.84;;;11.30;70.57
22753;BME280;11543;43.144;24.684;2023-03-04T08:38:18;98861.03;;;11.23;70.78
22753;BME280;11543;43.144;24.684;2023-03-04T08:40:44;98897.91;;;11.73;70.00
22753;BME280;11543;43.144;24.684;2023-03-04T08:43:09;98895.97;;;11.83;68.87
22753;BME280;11543;43.144;24.684;2023-03-04T08:45:35;98886.25;;;11.90;68.32
22753;BME280;11543;43.144;24.684;2023-03-04T08:48:01;98895.16;;;11.91;69.25
22753;BME280;11543;43.144;24.684;2023-03-04T08:50:26;98908.50;;;12.08;68.85
22753;BME280;11543;43.144;24.684;2023-03-04T08:52:53;98873.16;;;11.95;68.17
22753;BME280;11543;43.144;24.684;2023-03-04T08:55:20;98876.03;;;12.02;68.05
22753;BME280;11543;43.144;24.684;2023-03-04T08:57:58;98879.59;;;12.10;68.46
22753;BME280;11543;43.144;24.684;2023-03-04T09:00:51;98841.06;;;11.94;69.00
22753;BME280;11543;43.144;24.684;2023-03-04T09:06:45;98879.44;;;12.12;69.29
22753;BME280;11543;43.144;24.684;2023-03-04T09:09:12;98825.44;;;11.97;69.51
22753;BME280;11543;43.144;24.684;2023-03-04T09:11:38;98841.00;;;12.20;69.94
22753;BME280;11543;43.144;24.684;2023-03-04T09:14:03;98883.56;;;12.49;69.20
22753;BME280;11543;43.144;24.684;2023-03-04T09:16:29;98822.31;;;12.18;68.32
22753;BME280;11543;43.144;24.684;2023-03-04T09:18:54;98832.59;;;12.23;67.47
22753;BME280;11543;43.144;24.684;2023-03-04T09:21:20;98838.78;;;12.15;69.59
22753;BME280;11543;43.144;24.684;2023-03-04T09:23:48;98808.66;;;12.03;68.26
22753;BME280;11543;43.144;24.684;2023-03-04T09:26:20;98856.81;;;12.39;68.25
22753;BME280;11543;43.144;24.684;2023-03-04T09:28:49;98849.06;;;12.28;69.38
22753;BME280;11543;43.144;24.684;2023-03-04T09:31:14;98846.38;;;12.36;68.88
22753;BME280;11543;43.144;24.684;2023-03-04T09:33:40;98849.41;;;12.25;68.83
22753;BME280;11543;43.144;24.684;2023-03-04T09:36:12;98848.41;;;12.34;67.85
22753;BME280;11543;43.144;24.684;2023-03-04T09:38:38;98851.59;;;12.29;68.11
22753;BME280;11543;43.144;24.684;2023-03-04T09:41:16;98849.41;;;12.33;67.30
22753;BME280;11543;43.144;24.684;2023-03-04T09:43:46;98854.47;;;12.36;69.25
22753;BME280;11543;43.144;24.684;2023-03-04T09:46:17;98853.09;;;12.24;70.23
22753;BME280;11543;43.144;24.684;2023-03-04T09:48:48;98851.09;;;12.34;68.17
22753;BME280;11543;43.144;24.684;2023-03-04T09:51:21;98841.34;;;12.33;69.14
22753;BME280;11543;43.144;24.684;2023-03-04T09:56:50;98834.28;;;12.32;69.95
22753;BME280;11543;43.144;24.684;2023-03-04T09:59:40;98838.31;;;12.44;70.58
22753;BME280;11543;43.144;24.684;2023-03-04T10:02:19;98819.00;;;12.49;70.62
22753;BME280;11543;43.144;24.684;2023-03-04T10:04:49;98813.78;;;12.55;69.79
22753;BME280;11543;43.144;24.684;2023-03-04T10:07:20;98801.00;;;12.57;69.77
22753;BME280;11543;43.144;24.684;2023-03-04T10:12:35;98818.97;;;12.81;69.94
22753;BME280;11543;43.144;24.684;2023-03-04T10:15:33;98810.03;;;12.89;69.46
22753;BME280;11543;43.144;24.684;2023-03-04T10:18:51;98816.63;;;13.02;68.13
22753;BME280;11543;43.144;24.684;2023-03-04T10:23:37;98796.72;;;13.12;67.90
22753;BME280;11543;43.144;24.684;2023-03-04T10:26:15;98778.72;;;13.12;67.71
22753;BME280;11543;43.144;24.684;2023-03-04T10:28:41;98784.56;;;13.32;65.69
22753;BME280;11543;43.144;24.684;2023-03-04T10:33:34;98771.91;;;13.41;64.41
22753;BME280;11543;43.144;24.684;2023-03-04T10:36:04;98774.94;;;13.37;65.29
22753;BME280;11543;43.144;24.684;2023-03-04T10:38:33;98731.72;;;13.23;65.16
22753;BME280;11543;43.144;24.684;2023-03-04T10:40:59;98756.38;;;13.51;65.02
22753;BME280;11543;43.144;24.684;2023-03-04T10:43:26;98752.44;;;13.61;64.91
22753;BME280;11543;43.144;24.684;2023-03-04T10:46:01;98739.75;;;13.70;62.94
22753;BME280;11543;43.144;24.684;2023-03-04T10:48:29;98733.59;;;13.84;63.74
22753;BME280;11543;43.144;24.684;2023-03-04T10:51:20;98753.72;;;14.05;64.07
22753;BME280;11543;43.144;24.684;2023-03-04T10:53:55;98740.88;;;14.07;62.45
22753;BME280;11543;43.144;24.684;2023-03-04T10:56:37;98750.91;;;14.21;60.14
22753;BME280;11543;43.144;24.684;2023-03-04T10:59:33;98749.94;;;14.14;60.34
22753;BME280;11543;43.144;24.684;2023-03-04T11:04:37;98715.94;;;14.05;60.86
22753;BME280;11543;43.144;24.684;2023-03-04T11:07:07;98722.88;;;14.22;61.19
22753;BME280;11543;43.144;24.684;2023-03-04T11:09:33;98704.44;;;14.11;58.82
22753;BME280;11543;43.144;24.684;2023-03-04T11:12:01;98701.81;;;14.02;60.63
22753;BME280;11543;43.144;24.684;2023-03-04T11:14:37;98719.66;;;14.03;61.47
22753;BME280;11543;43.144;24.684;2023-03-04T11:39:00;98693.13;;;13.84;61.14
22753;BME280;11543;43.144;24.684;2023-03-04T11:41:35;98689.53;;;13.69;60.57
22753;BME280;11543;43.144;24.684;2023-03-04T11:44:05;98688.31;;;13.49;60.99
22753;BME280;11543;43.144;24.684;2023-03-04T12:03:34;98669.88;;;13.83;59.59
22753;BME280;11543;43.144;24.684;2023-03-04T12:11:21;98655.53;;;13.91;59.45
22753;BME280;11543;43.144;24.684;2023-03-04T12:14:06;98666.78;;;13.71;59.32
22753;BME280;11543;43.144;24.684;2023-03-04T12:42:19;98627.84;;;14.49;59.84
22753;BME280;11543;43.144;24.684;2023-03-04T12:44:58;98619.56;;;14.65;57.74
22753;BME280;11543;43.144;24.684;2023-03-04T12:50:28;98605.53;;;14.85;59.07
22753;BME280;11543;43.144;24.684;2023-03-04T12:55:43;98604.84;;;14.97;59.95
22753;BME280;11543;43.144;24.684;2023-03-04T12:58:19;98580.84;;;14.88;60.03
22753;BME280;11543;43.144;24.684;2023-03-04T13:09:55;98564.75;;;15.16;60.19
22753;BME280;11543;43.144;24.684;2023-03-04T13:12:23;98574.22;;;15.26;60.12
22753;BME280;11543;43.144;24.684;2023-03-04T13:17:49;98576.28;;;15.46;60.52
22753;BME280;11543;43.144;24.684;2023-03-04T13:25:35;98567.16;;;15.47;60.00
22753;BME280;11543;43.144;24.684;2023-03-04T13:32:56;98556.44;;;15.17;55.67
22753;BME280;11543;43.144;24.684;2023-03-04T13:43:43;98555.06;;;15.43;57.54
22753;BME280;11543;43.144;24.684;2023-03-04T13:51:33;98509.75;;;15.45;55.76
22753;BME280;11543;43.144;24.684;2023-03-04T14:01:35;98511.31;;;15.75;58.13
22753;BME280;11543;43.144;24.684;2023-03-04T14:06:42;98514.59;;;15.99;58.51
22753;BME280;11543;43.144;24.684;2023-03-04T14:12:33;98509.03;;;16.07;57.89
22753;BME280;11543;43.144;24.684;2023-03-04T14:15:03;98503.66;;;16.13;56.32
22753;BME280;11543;43.144;24.684;2023-03-04T14:17:36;98497.81;;;16.10;55.14
22753;BME280;11543;43.144;24.684;2023-03-04T14:20:02;98497.75;;;16.03;54.43
22753;BME280;11543;43.144;24.684;2023-03-04T14:22:32;98490.16;;;15.85;55.14
22753;BME280;11543;43.144;24.684;2023-03-04T14:25:02;98495.13;;;15.82;55.18
22753;BME280;11543;43.144;24.684;2023-03-04T14:27:30;98491.22;;;15.63;55.97
22753;BME280;11543;43.144;24.684;2023-03-04T14:30:02;98465.97;;;15.35;57.90
22753;BME280;11543;43.144;24.684;2023-03-04T14:32:28;98495.19;;;15.46;58.23
22753;BME280;11543;43.144;24.684;2023-03-04T14:52:49;98487.88;;;15.18;60.70
22753;BME280;11543;43.144;24.684;2023-03-04T14:55:27;98461.63;;;15.12;60.80
22753;BME280;11543;43.144;24.684;2023-03-04T14:58:05;98456.22;;;15.12;60.66
22753;BME280;11543;43.144;24.684;2023-03-04T15:00:35;98431.59;;;15.01;60.86
22753;BME280;11543;43.144;24.684;2023-03-04T15:03:02;98482.13;;;15.28;60.71
22753;BME280;11543;43.144;24.684;2023-03-04T15:05:29;98484.19;;;15.26;61.01
22753;BME280;11543;43.144;24.684;2023-03-04T15:07:57;98450.31;;;15.02;61.03
22753;BME280;11543;43.144;24.684;2023-03-04T15:10:34;98466.78;;;15.07;60.99
22753;BME280;11543;43.144;24.684;2023-03-04T15:13:04;98473.97;;;15.00;60.73
22753;BME280;11543;43.144;24.684;2023-03-04T15:15:40;98478.09;;;14.96;60.55
22753;BME280;11543;43.144;24.684;2023-03-04T15:18:23;98478.00;;;14.89;60.54
22753;BME280;11543;43.144;24.684;2023-03-04T15:21:29;98481.69;;;14.82;60.60
22753;BME280;11543;43.144;24.684;2023-03-04T15:23:55;98430.53;;;14.44;60.04
22753;BME280;11543;43.144;24.684;2023-03-04T15:26:20;98450.72;;;14.48;59.84
22753;BME280;11543;43.144;24.684;2023-03-04T15:28:46;98451.38;;;14.50;58.39
22753;BME280;11543;43.144;24.684;2023-03-04T15:31:17;98463.47;;;14.54;58.52
22753;BME280;11543;43.144;24.684;2023-03-04T15:33:43;98432.78;;;14.26;58.55
22753;BME280;11543;43.144;24.684;2023-03-04T15:36:13;98442.66;;;14.19;59.06
22753;BME280;11543;43.144;24.684;2023-03-04T15:38:40;98453.44;;;14.19;59.70
22753;BME280;11543;43.144;24.684;2023-03-04T15:41:09;98461.34;;;14.20;60.28
22753;BME280;11543;43.144;24.684;2023-03-04T15:43:35;98443.88;;;14.01;60.15
22753;BME280;11543;43.144;24.684;2023-03-04T15:46:01;98431.88;;;13.89;60.05
22753;BME280;11543;43.144;24.684;2023-03-04T15:48:27;98450.66;;;13.97;59.79
22753;BME280;11543;43.144;24.684;2023-03-04T15:50:58;98450.44;;;13.84;59.64
22753;BME280;11543;43.144;24.684;2023-03-04T15:53:39;98431.56;;;13.69;59.79
22753;BME280;11543;43.144;24.684;2023-03-04T15:56:10;98451.66;;;13.67;60.00
22753;BME280;11543;43.144;24.684;2023-03-04T15:58:37;98447.06;;;13.53;60.29
22753;BME280;11543;43.144;24.684;2023-03-04T16:01:04;98451.06;;;13.42;60.84
22753;BME280;11543;43.144;24.684;2023-03-04T16:03:30;98437.44;;;13.21;61.19